Ana Sayfa
METAR-TAF:

METAR-TAF

Havaalanları :

Blanding, Utah, Amerika Birleşik Devletleri

Enlem: 37-35-00N, Boylam: 109-29-00W, yükseklik: 1789 m

Güncel hava durumu gözlemi

Rapor saat 23:55 UTC de 32 dakika önce yapıldı.
Rüzgar güney/güneybatıdan 6 kt ve 15 kt'a kadar ani rüzgarlar
Sıcaklık 32°C
Nem 13%
Basınç 1022 hPa
Görüş mesafesi: 16.1 km

METAR: KBDG 242355Z AUTO 21006G15KT 10SM 32/00 A3017 RMK AO1 T03171001 10332 20288

Saat: 18:27 (00:27 UTC)


TAF: eksik

4.000'den fazla havaalanı için hava durumu gözlemleri ve tahminleri (METAR ve TAF raporları).

Kullanılabilir istasyonlar harita üzerinde sarı ve kırmızı noktalarla gösterilir.

İstasyonun adını görmek için fareyi noktanın üzerinde gezdirin.

Sonrasında hava gözlem ve tahminlerini görmek için tıklayın.

Haritayı değiştirmek için: yaklaştırmak için siyah artı işaretli yeşil düğmeye ve uzaklaştırmak için de eksi işaretli düğmeye hızla tıklayın; bitişik haritalar için yeşil okları kullanın.


METAR-TAF: